Map

Track Data

SID SEASON NUMBER BASIN SUBBASIN NAME ISO_TIME NATURE LAT LON WMO_WIND WMO_PRES WMO_AGENCY TRACK_TYPE DIST2LAND LANDFALL IFLAG USA_AGENCY USA_ATCF_ID USA_LAT USA_LON USA_RECORD USA_STATUS USA_WIND USA_PRES USA_SSHS USA_R34_NE USA_R34_SE USA_R34_SW USA_R34_NW USA_R50_NE USA_R50_SE USA_R50_SW USA_R50_NW USA_R64_NE USA_R64_SE USA_R64_SW USA_R64_NW USA_POCI USA_ROCI USA_RMW USA_EYE TOKYO_LAT TOKYO_LON TOKYO_GRADE TOKYO_WIND TOKYO_PRES TOKYO_R50_DIR TOKYO_R50_LONG TOKYO_R50_SHORT TOKYO_R30_DIR TOKYO_R30_LONG TOKYO_R30_SHORT TOKYO_LAND CMA_LAT CMA_LON CMA_CAT CMA_WIND CMA_PRES HKO_LAT HKO_LON HKO_CAT HKO_WIND HKO_PRES NEWDELHI_LAT NEWDELHI_LON NEWDELHI_GRADE NEWDELHI_WIND NEWDELHI_PRES NEWDELHI_CI NEWDELHI_DP NEWDELHI_POCI REUNION_LAT REUNION_LON REUNION_TYPE REUNION_WIND REUNION_PRES REUNION_TNUM REUNION_CI REUNION_RMW REUNION_R34_NE REUNION_R34_SE REUNION_R34_SW REUNION_R34_NW REUNION_R50_NE REUNION_R50_SE REUNION_R50_SW REUNION_R50_NW REUNION_R64_NE REUNION_R64_SE REUNION_R64_SW REUNION_R64_NW BOM_LAT BOM_LON BOM_TYPE BOM_WIND BOM_PRES BOM_TNUM BOM_CI BOM_RMW BOM_R34_NE BOM_R34_SE BOM_R34_SW BOM_R34_NW BOM_R50_NE BOM_R50_SE BOM_R50_SW BOM_R50_NW BOM_R64_NE BOM_R64_SE BOM_R64_SW BOM_R64_NW BOM_ROCI BOM_POCI BOM_EYE BOM_POS_METHOD BOM_PRES_METHOD NADI_LAT NADI_LON NADI_CAT NADI_WIND NADI_PRES WELLINGTON_LAT WELLINGTON_LON WELLINGTON_WIND WELLINGTON_PRES DS824_LAT DS824_LON DS824_STAGE DS824_WIND DS824_PRES TD9636_LAT TD9636_LON TD9636_STAGE TD9636_WIND TD9636_PRES TD9635_LAT TD9635_LON TD9635_WIND TD9635_PRES TD9635_ROCI NEUMANN_LAT NEUMANN_LON NEUMANN_CLASS NEUMANN_WIND NEUMANN_PRES MLC_LAT MLC_LON MLC_CLASS MLC_WIND MLC_PRES USA_GUST BOM_GUST BOM_GUST_PER REUNION_GUST REUNION_GUST_PER USA_SEAHGT USA_SEARAD_NE USA_SEARAD_SE USA_SEARAD_SW USA_SEARAD_NW STORM_SPEED STORM_DIR
1936231N12142 1936 38 WP MM NOT_NAMED 1936-08-18 09:00:00 NR 12.2000 142.000 main 1602 1602 __________O___ -1 12.2000 142.000 2 4 326
1936231N12142 1936 38 WP MM NOT_NAMED 1936-08-18 12:00:00 NR 12.3500 141.894 main 1620 1616 __________P___ -1 12.3500 141.894 2 4 325
1936231N12142 1936 38 WP MM NOT_NAMED 1936-08-18 15:00:00 NR 12.5000 141.790 main 1626 1626 __________P___ -1 12.5000 141.790 2 4 327
1936231N12142 1936 38 WP MM NOT_NAMED 1936-08-18 18:00:00 NR 12.6500 141.691 main 1642 1638 __________P___ -1 12.6500 141.691 2 4 329
1936231N12142 1936 38 WP MM NOT_NAMED 1936-08-18 21:00:00 NR 12.8000 141.600 main 1648 1648 __________O___ -1 12.8000 141.600 2 3 331
1936231N12142 1936 38 WP MM NOT_NAMED 1936-08-19 00:00:00 NR 12.9500 141.518 main 1654 1654 __________P___ -1 12.9500 141.518 2 3 333
1936231N12142 1936 38 WP MM NOT_NAMED 1936-08-19 03:00:00 NR 13.1000 141.442 main 1671 1671 __________P___ -1 13.1000 141.442 2 3 335
1936231N12142 1936 38 WP MM NOT_NAMED 1936-08-19 06:00:00 NR 13.2500 141.371 main 1681 1681 __________P___ -1 13.2500 141.371 2 3 335
1936231N12142 1936 38 WP MM NOT_NAMED 1936-08-19 09:00:00 NR 13.4000 141.300 main 1698 1697 __________O___ -1 13.4000 141.300 2 3 335
1936231N12142 1936 38 WP MM NOT_NAMED 1936-08-19 12:00:00 NR 13.5459 141.229 main 1697 1697 __________P___ -1 13.5459 141.229 2 3 335
1936231N12142 1936 38 WP MM NOT_NAMED 1936-08-19 15:00:00 NR 13.6925 141.157 main 1700 1689 __________P___ -1 13.6925 141.157 2 3 335
1936231N12142 1936 38 WP MM NOT_NAMED 1936-08-19 18:00:00 NR 13.8428 141.082 main 1691 1682 __________P___ -1 13.8428 141.082 2 3 334
1936231N12142 1936 38 WP MM NOT_NAMED 1936-08-19 21:00:00 NR 14.0000 141.000 main 1684 1675 __________O___ -1 14.0000 141.000 2 4 333
1936231N12142 1936 38 WP MM NOT_NAMED 1936-08-20 00:00:00 NR 14.1678 140.911 main 1677 1669 __________P___ -1 14.1678 140.911 2 4 332
1936231N12142 1936 38 WP MM NOT_NAMED 1936-08-20 03:00:00 NR 14.3425 140.815 main 1669 1663 __________P___ -1 14.3425 140.815 2 4 331
1936231N12142 1936 38 WP MM NOT_NAMED 1936-08-20 06:00:00 NR 14.5209 140.711 main 1663 1655 __________P___ -1 14.5209 140.711 2 4 329
1936231N12142 1936 38 WP MM NOT_NAMED 1936-08-20 09:00:00 NR 14.7000 140.600 main 1657 1648 __________O___ -1 14.7000 140.600 2 4 328
1936231N12142 1936 38 WP MM NOT_NAMED 1936-08-20 12:00:00 NR 14.8628 140.494 main 1649 1639 __________P___ -1 14.8628 140.494 2 4 327
1936231N12142 1936 38 WP MM NOT_NAMED 1936-08-20 15:00:00 NR 15.0274 140.380 main 1641 1632 __________P___ -1 15.0274 140.380 2 4 326
1936231N12142 1936 38 WP MM NOT_NAMED 1936-08-20 18:00:00 NR 15.2034 140.250 main 1634 1615 __________P___ -1 15.2034 140.250 2 5 324
1936231N12142 1936 38 WP MM NOT_NAMED 1936-08-20 21:00:00 NR 15.4000 140.100 main 1617 1600 __________O___ -1 15.4000 140.100 2 5 325
1936231N12142 1936 38 WP MM NOT_NAMED 1936-08-21 00:00:00 NR 15.6488 139.922 main 1600 1586 __________P___ -1 15.6488 139.922 2 6 325
1936231N12142 1936 38 WP MM NOT_NAMED 1936-08-21 03:00:00 NR 15.9150 139.723 main 1586 1571 __________P___ -1 15.9150 139.723 2 7 323
1936231N12142 1936 38 WP MM NOT_NAMED 1936-08-21 06:00:00 NR 16.1738 139.512 main 1574 1559 __________P___ -1 16.1738 139.512 2 6 320
1936231N12142 1936 38 WP MM NOT_NAMED 1936-08-21 09:00:00 NR 16.4000 139.300 main 1559 1542 __________O___ -1 16.4000 139.300 2 5 316
1936231N12142 1936 38 WP MM NOT_NAMED 1936-08-21 12:00:00 NR 16.5606 139.128 main 1545 1535 __________P___ -1 16.5606 139.128 2 4 311
1936231N12142 1936 38 WP MM NOT_NAMED 1936-08-21 15:00:00 NR 16.6870 138.952 main 1538 1518 __________P___ -1 16.6870 138.952 2 4 303
1936231N12142 1936 38 WP MM NOT_NAMED 1936-08-21 18:00:00 NR 16.7949 138.750 main 1511 1494 __________P___ -1 16.7949 138.750 2 5 296
1936231N12142 1936 38 WP MM NOT_NAMED 1936-08-21 21:00:00 NR 16.9000 138.500 main 1494 1468 __________O___ -1 16.9000 138.500 2 6 292
1936231N12142 1936 38 WP MM NOT_NAMED 1936-08-22 00:00:00 NR 17.0127 138.195 main 1468 1442 __________P___ -1 17.0127 138.195 2 7 290
1936231N12142 1936 38 WP MM NOT_NAMED 1936-08-22 03:00:00 NR 17.1272 137.839 main 1432 1406 __________P___ -1 17.1272 137.839 2 8 288
1936231N12142 1936 38 WP MM NOT_NAMED 1936-08-22 06:00:00 NR 17.2532 137.439 main 1401 1366 __________P___ -1 17.2532 137.439 2 8 289
1936231N12142 1936 38 WP MM NOT_NAMED 1936-08-22 09:00:00 NR 17.4000 137.000 main 1366 1327 __________O___ -1 17.4000 137.000 2 9 289
1936231N12142 1936 38 WP MM NOT_NAMED 1936-08-22 12:00:00 NR 17.5627 136.508 main 1327 1284 __________P___ -1 17.5627 136.508 2 10 290
1936231N12142 1936 38 WP MM NOT_NAMED 1936-08-22 15:00:00 NR 17.7482 135.985 main 1284 1248 __________P___ -1 17.7482 135.985 2 11 292
1936231N12142 1936 38 WP MM NOT_NAMED 1936-08-22 18:00:00 NR 17.9596 135.470 main 1254 1220 __________P___ -1 17.9596 135.470 2 10 296
1936231N12142 1936 38 WP MM NOT_NAMED 1936-08-22 21:00:00 NR 18.2000 135.000 main 1220 1197 __________O___ -1 18.2000 135.000 2 9 301
1936231N12142 1936 38 WP MM NOT_NAMED 1936-08-23 00:00:00 NR 18.4421 134.628 main 1197 1185 __________P___ -1 18.4421 134.628 2 8 308
1936231N12142 1936 38 WP MM NOT_NAMED 1936-08-23 03:00:00 NR 18.7166 134.304 main 1185 1171 __________P___ -1 18.7166 134.304 2 8 315
1936231N12142 1936 38 WP MM NOT_NAMED 1936-08-23 06:00:00 NR 19.0328 134.003 main 1171 1164 __________P___ -1 19.0328 134.003 2 9 320
1936231N12142 1936 38 WP MM NOT_NAMED 1936-08-23 09:00:00 NR 19.4000 133.700 main 1166 1159 __________O___ -1 19.4000 133.700 2 10 324
1936231N12142 1936 38 WP MM NOT_NAMED 1936-08-23 12:00:00 NR 19.8405 133.377 main 1163 1150 __________P___ -1 19.8405 133.377 2 11 326
1936231N12142 1936 38 WP MM NOT_NAMED 1936-08-23 15:00:00 NR 20.3268 133.045 main 1142 1121 __________P___ -1 20.3268 133.045 2 12 327
1936231N12142 1936 38 WP MM NOT_NAMED 1936-08-23 18:00:00 NR 20.8248 132.690 main 1121 1091 __________P___ -1 20.8248 132.690 2 12 324
1936231N12142 1936 38 WP MM NOT_NAMED 1936-08-23 21:00:00 NR 21.3000 132.300 main 1094 1045 __________O___ -1 21.3000 132.300 2 12 322
1936231N12142 1936 38 WP MM NOT_NAMED 1936-08-24 00:00:00 NR 21.7513 131.910 main 1034 997 __________P___ -1 21.7513 131.910 2 12 319
1936231N12142 1936 38 WP MM NOT_NAMED 1936-08-24 03:00:00 NR 22.1680 131.478 main 986 949 __________P___ -1 22.1680 131.478 2 12 312
1936231N12142 1936 38 WP MM NOT_NAMED 1936-08-24 06:00:00 NR 22.5258 130.982 main 949 885 __________P___ -1 22.5258 130.982 2 12 302
1936231N12142 1936 38 WP MM NOT_NAMED 1936-08-24 09:00:00 NR 22.8000 130.400 main 885 813 __________O___ -1 22.8000 130.400 2 13 286
1936231N12142 1936 38 WP MM NOT_NAMED 1936-08-24 12:00:00 NR 22.8789 129.623 main 803 724 __________P___ -1 22.8789 129.623 2 15 273
1936231N12142 1936 38 WP MM NOT_NAMED 1936-08-24 15:00:00 NR 22.8868 128.778 main 724 645 __________P___ -1 22.8868 128.778 2 15 272
1936231N12142 1936 38 WP MM NOT_NAMED 1936-08-24 18:00:00 NR 22.9258 127.970 main 645 570 __________P___ -1 22.9258 127.970 2 14 279
1936231N12142 1936 38 WP MM NOT_NAMED 1936-08-24 21:00:00 NR 23.1000 127.300 main 570 517 __________O___ -1 23.1000 127.300 2 12 305
1936231N12142 1936 38 WP MM NOT_NAMED 1936-08-25 00:00:00 NR 23.6073 126.924 main 517 483 __________P___ -1 23.6073 126.924 2 13 334
1936231N12142 1936 38 WP MM NOT_NAMED 1936-08-25 03:00:00 NR 24.2517 126.687 main 481 453 __________P___ -1 24.2517 126.687 2 14 344
1936231N12142 1936 38 WP MM NOT_NAMED 1936-08-25 06:00:00 NR 24.9204 126.507 main 453 434 __________P___ -1 24.9204 126.507 2 13 344
1936231N12142 1936 38 WP MM NOT_NAMED 1936-08-25 09:00:00 NR 25.5000 126.300 main 435 401 __________O___ -1 25.5000 126.300 4 11 329
1936231N12142 1936 38 WP MM NOT_NAMED 1936-08-25 12:00:00 NR 25.8132 125.902 main 401 368 __________P___ -1 25.8132 125.902 4 9 305
1936231N12142 1936 38 WP MM NOT_NAMED 1936-08-25 15:00:00 NR 26.0261 125.469 main 368 338 __________P___ -1 26.0261 125.469 4 9 297
1936231N12142 1936 38 WP MM NOT_NAMED 1936-08-25 18:00:00 NR 26.2008 125.052 main 338 312 __________P___ -1 26.2008 125.052 4 8 298
1936231N12142 1936 38 WP MM NOT_NAMED 1936-08-25 21:00:00 NR 26.4000 124.700 main 312 301 __________O___ -1 26.4000 124.700 4 7 312
1936231N12142 1936 38 WP MM NOT_NAMED 1936-08-26 00:00:00 NR 26.6810 124.446 main 306 302 __________P___ -1 26.6810 124.446 4 7 327
1936231N12142 1936 38 WP MM NOT_NAMED 1936-08-26 03:00:00 NR 27.0019 124.265 main 302 278 __________P___ -1 27.0019 124.265 4 7 339
1936231N12142 1936 38 WP MM NOT_NAMED 1936-08-26 06:00:00 NR 27.3718 124.152 main 274 251 __________P___ -1 27.3718 124.152 4 8 349
1936231N12142 1936 38 WP MM NOT_NAMED 1936-08-26 09:00:00 NR 27.8000 124.100 main 251 224 __________O___ -1 27.8000 124.100 4 9 353
1936231N12142 1936 38 WP MM NOT_NAMED 1936-08-26 12:00:00 NR 28.2636 124.037 main 219 199 __________P___ -1 28.2636 124.037 4 10 357
1936231N12142 1936 38 WP MM NOT_NAMED 1936-08-26 15:00:00 NR 28.7868 124.038 main 199 197 __________P___ -1 28.7868 124.038 4 11 4
1936231N12142 1936 38 WP MM NOT_NAMED 1936-08-26 18:00:00 NR 29.3666 124.120 main 204 204 __________P___ -1 29.3666 124.120 4 12 11
1936231N12142 1936 38 WP MM NOT_NAMED 1936-08-26 21:00:00 NR 30.0000 124.300 main 232 232 __________O___ -1 30.0000 124.300 4 13 16
1936231N12142 1936 38 WP MM NOT_NAMED 1936-08-27 00:00:00 NR 30.5762 124.527 main 250 250 __________P___ -1 30.5762 124.527 4 13 22
1936231N12142 1936 38 WP MM NOT_NAMED 1936-08-27 03:00:00 NR 31.2156 124.860 main 258 172 __________P___ -1 31.2156 124.860 4 16 26
1936231N12142 1936 38 WP MM NOT_NAMED 1936-08-27 06:00:00 NR 31.9721 125.313 main 163 58 __________P___ -1 31.9721 125.313 4 19 28
1936231N12142 1936 38 WP MM NOT_NAMED 1936-08-27 09:00:00 NR 32.9000 125.900 main 50 0 __________O___ -1 32.9000 125.900 2 25 27
1936231N12142 1936 38 WP MM NOT_NAMED 1936-08-27 12:00:00 NR 34.2173 126.651 main 21 0 __________P___ -1 34.2173 126.651 2 31 26
1936231N12142 1936 38 WP MM NOT_NAMED 1936-08-27 15:00:00 NR 35.6741 127.547 main 0 0 __________P___ -1 35.6741 127.547 2 32 28
1936231N12142 1936 38 WP MM NOT_NAMED 1936-08-27 18:00:00 NR 37.0683 128.524 main 0 0 __________P___ -1 37.0683 128.524 2 30 32
1936231N12142 1936 38 WP MM NOT_NAMED 1936-08-27 21:00:00 NR 38.2000 129.500 main 65 65 __________O___ -1 38.2000 129.500 2 22 40
1936231N12142 1936 38 WP MM NOT_NAMED 1936-08-28 00:00:00 NR 38.7389 130.334 main 152 152 __________P___ -1 38.7389 130.334 2 15 57
1936231N12142 1936 38 WP MM NOT_NAMED 1936-08-28 03:00:00 NR 39.0163 131.127 main 226 226 __________P___ -1 39.0163 131.127 2 13 69
1936231N12142 1936 38 WP MM NOT_NAMED 1936-08-28 06:00:00 NR 39.2109 131.905 main 258 258 __________P___ -1 39.2109 131.905 2 13 68
1936231N12142 1936 38 WP MM NOT_NAMED 1936-08-28 09:00:00 NR 39.5000 132.700 main 292 282 __________O___ -1 39.5000 132.700 2 17 54
1936231N12142 1936 38 WP MM NOT_NAMED 1936-08-28 12:00:00 NR 40.2296 133.704 main 284 213 __________P___ -1 40.2296 133.704 2 22 45
1936231N12142 1936 38 WP MM NOT_NAMED 1936-08-28 15:00:00 NR 41.0592 134.733 main 206 183 __________P___ -1 41.0592 134.733 2 22 42
1936231N12142 1936 38 WP MM NOT_NAMED 1936-08-28 18:00:00 NR 41.8583 135.673 main 179 151 __________P___ -1 41.8583 135.673 2 19 41
1936231N12142 1936 38 WP MM NOT_NAMED 1936-08-28 21:00:00 NR 42.5000 136.400 main 153 150 __________O___ -1 42.5000 136.400 2 13 40
1936231N12142 1936 38 WP MM NOT_NAMED 1936-08-29 00:00:00 NR 42.8255 136.755 main 157 149 __________P___ -1 42.8255 136.755 2 6 35
1936231N12142 1936 38 WP MM NOT_NAMED 1936-08-29 03:00:00 NR 42.9894 136.870 main 149 143 __________P___ -1 42.9894 136.870 2 2 17
1936231N12142 1936 38 WP MM NOT_NAMED 1936-08-29 06:00:00 NR 43.0588 136.850 main 136 136 __________P___ -1 43.0588 136.850 2 1 332
1936231N12142 1936 38 WP MM NOT_NAMED 1936-08-29 09:00:00 NR 43.1000 136.800 main 136 130 __________O___ -1 43.1000 136.800 2 2 0
1936231N12142 1936 38 WP MM NOT_NAMED 1936-08-29 12:00:00 NR 43.2224 136.870 main 136 130 __________P___ -1 43.2224 136.870 2 3 23
1936231N12142 1936 38 WP MM NOT_NAMED 1936-08-29 15:00:00 NR 43.3298 136.935 main 130 130 __________P___ -1 43.3298 136.935 2 2 27
1936231N12142 1936 38 WP MM NOT_NAMED 1936-08-29 18:00:00 NR 43.4224 137.008 main 130 125 __________P___ -1 43.4224 137.008 2 2 34
1936231N12142 1936 38 WP MM NOT_NAMED 1936-08-29 21:00:00 NR 43.5000 137.100 main 132 127 __________O___ -1 43.5000 137.100 2 2 49
1936231N12142 1936 38 WP MM NOT_NAMED 1936-08-30 00:00:00 NR 43.5645 137.233 main 127 127 __________P___ -1 43.5645 137.233 2 2 61
1936231N12142 1936 38 WP MM NOT_NAMED 1936-08-30 03:00:00 NR 43.6151 137.385 main 138 136 __________P___ -1 43.6151 137.385 2 2 68
1936231N12142 1936 38 WP MM NOT_NAMED 1936-08-30 06:00:00 NR 43.6582 137.545 main 136 136 __________P___ -1 43.6582 137.545 2 2 70
1936231N12142 1936 38 WP MM NOT_NAMED 1936-08-30 09:00:00 NR 43.7000 137.700 main 148 148 __________O___ -1 43.7000 137.700 2 2 64
1936231N12142 1936 38 WP MM NOT_NAMED 1936-08-30 12:00:00 NR 43.7539 137.820 main 149 149 __________P___ -1 43.7539 137.820 2 2 57
1936231N12142 1936 38 WP MM NOT_NAMED 1936-08-30 15:00:00 NR 43.8072 137.935 main 155 155 __________P___ -1 43.8072 137.935 2 2 59
1936231N12142 1936 38 WP MM NOT_NAMED 1936-08-30 18:00:00 NR 43.8570 138.058 main 161 161 __________P___ -1 43.8570 138.058 2 2 64
1936231N12142 1936 38 WP MM NOT_NAMED 1936-08-30 21:00:00 NR 43.9000 138.200 main 167 167 __________O___ -1 43.9000 138.200 2 2 80
1936231N12142 1936 38 WP MM NOT_NAMED 1936-08-31 00:00:00 NR 43.8952 138.348 main 173 159 __________P___ -1 43.8952 138.348 2 2 93
1936231N12142 1936 38 WP MM NOT_NAMED 1936-08-31 03:00:00 NR 43.8892 138.520 main 159 144 __________P___ -1 43.8892 138.520 2 3 86
1936231N12142 1936 38 WP MM NOT_NAMED 1936-08-31 06:00:00 NR 43.9137 138.733 main 144 130 __________P___ -1 43.9137 138.733 2 4 72
1936231N12142 1936 38 WP MM NOT_NAMED 1936-08-31 09:00:00 NR 44.0000 139.000 main 130 123 __________O___ -1 44.0000 139.000 2 5 54
1936231N12142 1936 38 WP MM NOT_NAMED 1936-08-31 12:00:00 NR 44.2047 139.296 main 128 123 __________P___ -1 44.2047 139.296 2 7 45
1936231N12142 1936 38 WP MM NOT_NAMED 1936-08-31 15:00:00 NR 44.4683 139.656 main 141 126 __________P___ -1 44.4683 139.656 2 8 46
1936231N12142 1936 38 WP MM NOT_NAMED 1936-08-31 18:00:00 NR 44.7479 140.087 main 126 81 __________P___ -1 44.7479 140.087 2 9 52
1936231N12142 1936 38 WP MM NOT_NAMED 1936-08-31 21:00:00 NR 45.0000 140.600 main 81 33 __________O___ -1 45.0000 140.600 2 9 64
1936231N12142 1936 38 WP MM NOT_NAMED 1936-09-01 00:00:00 NR 45.1510 141.238 main 31 0 __________P___ -1 45.1510 141.238 2 10 74
1936231N12142 1936 38 WP MM NOT_NAMED 1936-09-01 03:00:00 NR 45.2682 141.945 main 0 0 __________P___ -1 45.2682 141.945 2 10 77
1936231N12142 1936 38 WP MM NOT_NAMED 1936-09-01 06:00:00 NR 45.3760 142.654 main 44 44 __________P___ -1 45.3760 142.654 2 10 76
1936231N12142 1936 38 WP MM NOT_NAMED 1936-09-01 09:00:00 NR 45.5000 143.300 main 56 45 __________O___ -1 45.5000 143.300 2 9 71
1936231N12142 1936 38 WP MM NOT_NAMED 1936-09-01 12:00:00 NR 45.6612 143.835 main 45 45 __________P___ -1 45.6612 143.835 2 8 62
1936231N12142 1936 38 WP MM NOT_NAMED 1936-09-01 15:00:00 NR 45.8556 144.275 main 69 69 __________P___ -1 45.8556 144.275 2 7 54
1936231N12142 1936 38 WP MM NOT_NAMED 1936-09-01 18:00:00 NR 46.0724 144.652 main 92 92 __________P___ -1 46.0724 144.652 2 7 49
1936231N12142 1936 38 WP MM NOT_NAMED 1936-09-01 21:00:00 NR 46.3000 145.000 main 114 __________O___ -1 46.3000 145.000 2 7 47

Digital Typhoon Data and Search

About IBTrACS Database

This database is a web-friendly format of International Best Track Archive for Climate Stewardship (IBTrACS), a global best track data archive curated by NOAA dating back to 1842.

Updated: 2021-10-08